sensor_id;sensor_type;location;lat;lon;timestamp;P1;durP1;ratioP1;P2;durP2;ratioP2
77226;SDS011;66234;47.642;19.144;2023-04-24T00:00:09;10.25;;;6.07;;
77226;SDS011;66234;47.642;19.144;2023-04-24T00:03:12;10.23;;;6.17;;
77226;SDS011;66234;47.642;19.144;2023-04-24T00:06:15;9.17;;;5.93;;
77226;SDS011;66234;47.642;19.144;2023-04-24T00:09:19;10.02;;;6.45;;
77226;SDS011;66234;47.642;19.144;2023-04-24T00:12:22;10.20;;;6.28;;
77226;SDS011;66234;47.642;19.144;2023-04-24T00:15:24;8.55;;;5.40;;
77226;SDS011;66234;47.642;19.144;2023-04-24T00:18:27;9.50;;;5.83;;
77226;SDS011;66234;47.642;19.144;2023-04-24T00:21:30;7.97;;;6.07;;
77226;SDS011;66234;47.642;19.144;2023-04-24T00:24:34;8.88;;;6.20;;
77226;SDS011;66234;47.642;19.144;2023-04-24T00:27:37;8.57;;;5.90;;
77226;SDS011;66234;47.642;19.144;2023-04-24T00:30:41;9.88;;;5.97;;
77226;SDS011;66234;47.642;19.144;2023-04-24T00:33:43;11.37;;;6.10;;
77226;SDS011;66234;47.642;19.144;2023-04-24T00:36:47;10.03;;;6.17;;
77226;SDS011;66234;47.642;19.144;2023-04-24T00:39:52;9.45;;;5.97;;
77226;SDS011;66234;47.642;19.144;2023-04-24T00:42:55;7.85;;;5.78;;
77226;SDS011;66234;47.642;19.144;2023-04-24T00:45:58;9.40;;;6.50;;
77226;SDS011;66234;47.642;19.144;2023-04-24T00:49:04;9.23;;;6.20;;
77226;SDS011;66234;47.642;19.144;2023-04-24T00:52:07;10.80;;;6.40;;
77226;SDS011;66234;47.642;19.144;2023-04-24T00:55:10;9.57;;;6.22;;
77226;SDS011;66234;47.642;19.144;2023-04-24T00:58:13;8.93;;;6.40;;
77226;SDS011;66234;47.642;19.144;2023-04-24T01:01:17;8.88;;;6.00;;
77226;SDS011;66234;47.642;19.144;2023-04-24T01:04:23;12.33;;;6.20;;
77226;SDS011;66234;47.642;19.144;2023-04-24T01:07:26;11.97;;;6.20;;
77226;SDS011;66234;47.642;19.144;2023-04-24T01:10:29;10.45;;;5.88;;
77226;SDS011;66234;47.642;19.144;2023-04-24T01:13:36;12.20;;;6.47;;
77226;SDS011;66234;47.642;19.144;2023-04-24T01:16:38;8.40;;;5.75;;
77226;SDS011;66234;47.642;19.144;2023-04-24T01:19:41;8.10;;;5.83;;
77226;SDS011;66234;47.642;19.144;2023-04-24T01:22:47;8.77;;;6.07;;
77226;SDS011;66234;47.642;19.144;2023-04-24T01:25:50;9.60;;;6.07;;
77226;SDS011;66234;47.642;19.144;2023-04-24T01:28:53;9.85;;;5.90;;
77226;SDS011;66234;47.642;19.144;2023-04-24T01:31:56;11.98;;;6.30;;
77226;SDS011;66234;47.642;19.144;2023-04-24T01:35:00;7.00;;;6.30;;
77226;SDS011;66234;47.642;19.144;2023-04-24T01:38:04;9.23;;;5.57;;
77226;SDS011;66234;47.642;19.144;2023-04-24T01:41:07;9.35;;;5.78;;
77226;SDS011;66234;47.642;19.144;2023-04-24T01:44:10;8.52;;;6.25;;
77226;SDS011;66234;47.642;19.144;2023-04-24T01:47:13;7.15;;;6.10;;
77226;SDS011;66234;47.642;19.144;2023-04-24T01:50:16;8.50;;;5.93;;
77226;SDS011;66234;47.642;19.144;2023-04-24T01:53:19;8.13;;;5.77;;
77226;SDS011;66234;47.642;19.144;2023-04-24T01:56:22;8.90;;;6.20;;
77226;SDS011;66234;47.642;19.144;2023-04-24T01:59:25;12.35;;;6.03;;
77226;SDS011;66234;47.642;19.144;2023-04-24T02:02:29;8.63;;;6.70;;
77226;SDS011;66234;47.642;19.144;2023-04-24T02:05:32;8.00;;;6.50;;
77226;SDS011;66234;47.642;19.144;2023-04-24T02:08:37;9.80;;;6.67;;
77226;SDS011;66234;47.642;19.144;2023-04-24T02:11:41;8.32;;;6.25;;
77226;SDS011;66234;47.642;19.144;2023-04-24T02:14:43;8.75;;;6.22;;
77226;SDS011;66234;47.642;19.144;2023-04-24T02:17:46;8.57;;;6.15;;
77226;SDS011;66234;47.642;19.144;2023-04-24T02:20:49;10.97;;;6.87;;
77226;SDS011;66234;47.642;19.144;2023-04-24T02:23:52;10.17;;;6.53;;
77226;SDS011;66234;47.642;19.144;2023-04-24T02:26:54;9.63;;;6.68;;
77226;SDS011;66234;47.642;19.144;2023-04-24T02:29:57;17.95;;;7.70;;
77226;SDS011;66234;47.642;19.144;2023-04-24T02:32:59;10.65;;;6.80;;
77226;SDS011;66234;47.642;19.144;2023-04-24T02:36:02;9.47;;;7.80;;
77226;SDS011;66234;47.642;19.144;2023-04-24T02:39:05;11.17;;;7.50;;
77226;SDS011;66234;47.642;19.144;2023-04-24T02:42:07;16.05;;;8.00;;
77226;SDS011;66234;47.642;19.144;2023-04-24T02:45:10;10.50;;;7.97;;
77226;SDS011;66234;47.642;19.144;2023-04-24T02:48:13;12.32;;;8.60;;
77226;SDS011;66234;47.642;19.144;2023-04-24T02:51:16;10.40;;;7.90;;
77226;SDS011;66234;47.642;19.144;2023-04-24T02:54:18;9.77;;;7.67;;
77226;SDS011;66234;47.642;19.144;2023-04-24T02:57:21;12.25;;;8.30;;
77226;SDS011;66234;47.642;19.144;2023-04-24T03:00:24;13.40;;;8.10;;
77226;SDS011;66234;47.642;19.144;2023-04-24T03:03:26;11.50;;;7.97;;
77226;SDS011;66234;47.642;19.144;2023-04-24T03:06:29;13.50;;;7.90;;
77226;SDS011;66234;47.642;19.144;2023-04-24T03:09:33;14.97;;;8.57;;
77226;SDS011;66234;47.642;19.144;2023-04-24T03:12:36;10.68;;;8.38;;
77226;SDS011;66234;47.642;19.144;2023-04-24T03:15:38;11.90;;;8.00;;
77226;SDS011;66234;47.642;19.144;2023-04-24T03:18:41;14.80;;;7.95;;
77226;SDS011;66234;47.642;19.144;2023-04-24T03:21:44;13.53;;;8.50;;
77226;SDS011;66234;47.642;19.144;2023-04-24T03:24:47;12.03;;;7.70;;
77226;SDS011;66234;47.642;19.144;2023-04-24T03:27:52;12.35;;;8.40;;
77226;SDS011;66234;47.642;19.144;2023-04-24T03:31:17;15.18;;;8.98;;
77226;SDS011;66234;47.642;19.144;2023-04-24T03:34:21;10.77;;;7.70;;
77226;SDS011;66234;47.642;19.144;2023-04-24T03:37:23;11.87;;;8.80;;
77226;SDS011;66234;47.642;19.144;2023-04-24T03:40:37;11.30;;;8.57;;
77226;SDS011;66234;47.642;19.144;2023-04-24T03:43:48;13.48;;;8.85;;
77226;SDS011;66234;47.642;19.144;2023-04-24T03:46:50;14.32;;;9.43;;
77226;SDS011;66234;47.642;19.144;2023-04-24T03:49:55;13.27;;;8.38;;
77226;SDS011;66234;47.642;19.144;2023-04-24T03:52:58;14.83;;;8.50;;
77226;SDS011;66234;47.642;19.144;2023-04-24T03:56:10;15.47;;;9.43;;
77226;SDS011;66234;47.642;19.144;2023-04-24T03:59:15;13.57;;;9.35;;
77226;SDS011;66234;47.642;19.144;2023-04-24T04:02:22;14.20;;;8.70;;
77226;SDS011;66234;47.642;19.144;2023-04-24T04:05:25;15.18;;;10.65;;
77226;SDS011;66234;47.642;19.144;2023-04-24T04:08:28;13.53;;;8.87;;
77226;SDS011;66234;47.642;19.144;2023-04-24T04:11:30;13.07;;;9.10;;
77226;SDS011;66234;47.642;19.144;2023-04-24T04:14:33;11.88;;;9.73;;
77226;SDS011;66234;47.642;19.144;2023-04-24T04:17:36;9.80;;;7.55;;
77226;SDS011;66234;47.642;19.144;2023-04-24T04:20:42;13.43;;;8.15;;
77226;SDS011;66234;47.642;19.144;2023-04-24T04:23:47;14.33;;;8.60;;
77226;SDS011;66234;47.642;19.144;2023-04-24T04:27:04;15.03;;;7.90;;
77226;SDS011;66234;47.642;19.144;2023-04-24T04:30:14;12.60;;;7.60;;
77226;SDS011;66234;47.642;19.144;2023-04-24T04:33:24;11.25;;;8.13;;
77226;SDS011;66234;47.642;19.144;2023-04-24T04:36:27;10.52;;;8.00;;
77226;SDS011;66234;47.642;19.144;2023-04-24T04:39:38;12.00;;;7.90;;
77226;SDS011;66234;47.642;19.144;2023-04-24T04:42:44;12.33;;;7.90;;
77226;SDS011;66234;47.642;19.144;2023-04-24T04:45:48;11.00;;;7.88;;
77226;SDS011;66234;47.642;19.144;2023-04-24T04:49:13;12.80;;;7.70;;
77226;SDS011;66234;47.642;19.144;2023-04-24T04:52:20;10.45;;;7.78;;
77226;SDS011;66234;47.642;19.144;2023-04-24T04:55:32;11.60;;;7.57;;
77226;SDS011;66234;47.642;19.144;2023-04-24T04:58:45;12.37;;;8.20;;
77226;SDS011;66234;47.642;19.144;2023-04-24T05:01:50;12.52;;;8.15;;
77226;SDS011;66234;47.642;19.144;2023-04-24T05:04:53;11.35;;;7.97;;
77226;SDS011;66234;47.642;19.144;2023-04-24T05:07:56;11.40;;;8.07;;
77226;SDS011;66234;47.642;19.144;2023-04-24T05:10:59;12.33;;;8.00;;
77226;SDS011;66234;47.642;19.144;2023-04-24T05:14:04;10.77;;;7.33;;
77226;SDS011;66234;47.642;19.144;2023-04-24T05:17:11;13.70;;;8.65;;
77226;SDS011;66234;47.642;19.144;2023-04-24T05:20:14;15.93;;;7.47;;
77226;SDS011;66234;47.642;19.144;2023-04-24T05:23:18;10.80;;;7.80;;
77226;SDS011;66234;47.642;19.144;2023-04-24T05:26:24;11.10;;;7.63;;
77226;SDS011;66234;47.642;19.144;2023-04-24T05:29:26;10.00;;;8.10;;
77226;SDS011;66234;47.642;19.144;2023-04-24T05:32:29;15.98;;;7.80;;
77226;SDS011;66234;47.642;19.144;2023-04-24T05:35:32;11.00;;;7.43;;
77226;SDS011;66234;47.642;19.144;2023-04-24T05:38:36;11.73;;;7.53;;
77226;SDS011;66234;47.642;19.144;2023-04-24T05:41:40;13.27;;;7.57;;
77226;SDS011;66234;47.642;19.144;2023-04-24T05:44:43;11.53;;;8.43;;
77226;SDS011;66234;47.642;19.144;2023-04-24T05:47:46;11.57;;;8.23;;
77226;SDS011;66234;47.642;19.144;2023-04-24T05:50:49;11.77;;;7.65;;
77226;SDS011;66234;47.642;19.144;2023-04-24T05:53:53;9.05;;;7.03;;
77226;SDS011;66234;47.642;19.144;2023-04-24T05:56:56;9.57;;;7.20;;
77226;SDS011;66234;47.642;19.144;2023-04-24T06:00:14;11.60;;;7.27;;
77226;SDS011;66234;47.642;19.144;2023-04-24T06:03:24;10.25;;;7.65;;
77226;SDS011;66234;47.642;19.144;2023-04-24T06:06:27;13.30;;;8.00;;
77226;SDS011;66234;47.642;19.144;2023-04-24T06:09:31;11.77;;;7.55;;
77226;SDS011;66234;47.642;19.144;2023-04-24T06:12:34;11.47;;;7.73;;
77226;SDS011;66234;47.642;19.144;2023-04-24T06:15:41;11.87;;;7.83;;
77226;SDS011;66234;47.642;19.144;2023-04-24T06:18:51;13.63;;;7.80;;
77226;SDS011;66234;47.642;19.144;2023-04-24T06:21:54;17.27;;;8.20;;
77226;SDS011;66234;47.642;19.144;2023-04-24T06:24:57;10.95;;;7.55;;
77226;SDS011;66234;47.642;19.144;2023-04-24T06:28:00;11.90;;;7.67;;
77226;SDS011;66234;47.642;19.144;2023-04-24T06:31:04;9.03;;;7.03;;
77226;SDS011;66234;47.642;19.144;2023-04-24T06:34:07;10.88;;;7.82;;
77226;SDS011;66234;47.642;19.144;2023-04-24T06:37:09;10.95;;;7.68;;
77226;SDS011;66234;47.642;19.144;2023-04-24T06:40:12;10.52;;;7.43;;
77226;SDS011;66234;47.642;19.144;2023-04-24T06:43:15;13.27;;;7.40;;
77226;SDS011;66234;47.642;19.144;2023-04-24T06:46:17;13.00;;;8.10;;
77226;SDS011;66234;47.642;19.144;2023-04-24T06:49:21;11.38;;;7.78;;
77226;SDS011;66234;47.642;19.144;2023-04-24T06:52:23;11.98;;;7.40;;
77226;SDS011;66234;47.642;19.144;2023-04-24T06:55:26;11.15;;;7.85;;
77226;SDS011;66234;47.642;19.144;2023-04-24T06:58:28;14.33;;;8.50;;
77226;SDS011;66234;47.642;19.144;2023-04-24T07:01:33;10.77;;;7.47;;
77226;SDS011;66234;47.642;19.144;2023-04-24T07:04:35;13.48;;;8.32;;
77226;SDS011;66234;47.642;19.144;2023-04-24T07:07:39;12.80;;;8.02;;
77226;SDS011;66234;47.642;19.144;2023-04-24T07:10:42;11.35;;;7.35;;
77226;SDS011;66234;47.642;19.144;2023-04-24T07:13:45;10.93;;;7.83;;
77226;SDS011;66234;47.642;19.144;2023-04-24T07:16:48;12.40;;;8.40;;
77226;SDS011;66234;47.642;19.144;2023-04-24T07:19:51;13.23;;;8.07;;
77226;SDS011;66234;47.642;19.144;2023-04-24T07:22:54;11.32;;;7.32;;
77226;SDS011;66234;47.642;19.144;2023-04-24T07:25:57;11.75;;;7.93;;
77226;SDS011;66234;47.642;19.144;2023-04-24T07:29:00;10.53;;;6.63;;
77226;SDS011;66234;47.642;19.144;2023-04-24T07:32:03;11.37;;;6.93;;
77226;SDS011;66234;47.642;19.144;2023-04-24T07:35:06;12.75;;;7.60;;
77226;SDS011;66234;47.642;19.144;2023-04-24T07:38:08;12.52;;;7.15;;
77226;SDS011;66234;47.642;19.144;2023-04-24T07:41:14;10.82;;;7.47;;
77226;SDS011;66234;47.642;19.144;2023-04-24T07:44:17;10.60;;;6.87;;
77226;SDS011;66234;47.642;19.144;2023-04-24T07:47:20;10.30;;;6.63;;
77226;SDS011;66234;47.642;19.144;2023-04-24T07:50:22;11.52;;;7.10;;
77226;SDS011;66234;47.642;19.144;2023-04-24T07:53:25;10.82;;;6.82;;
77226;SDS011;66234;47.642;19.144;2023-04-24T07:56:28;11.45;;;7.10;;
77226;SDS011;66234;47.642;19.144;2023-04-24T07:59:33;9.37;;;7.13;;
77226;SDS011;66234;47.642;19.144;2023-04-24T08:02:37;11.77;;;8.73;;
77226;SDS011;66234;47.642;19.144;2023-04-24T08:05:40;12.00;;;8.10;;
77226;SDS011;66234;47.642;19.144;2023-04-24T08:08:44;11.93;;;7.70;;
77226;SDS011;66234;47.642;19.144;2023-04-24T08:11:47;14.82;;;8.48;;
77226;SDS011;66234;47.642;19.144;2023-04-24T08:14:49;9.97;;;7.63;;
77226;SDS011;66234;47.642;19.144;2023-04-24T08:17:52;11.67;;;7.90;;
77226;SDS011;66234;47.642;19.144;2023-04-24T08:20:55;9.70;;;7.22;;
77226;SDS011;66234;47.642;19.144;2023-04-24T08:24:03;9.98;;;7.40;;
77226;SDS011;66234;47.642;19.144;2023-04-24T08:27:09;14.25;;;7.85;;
77226;SDS011;66234;47.642;19.144;2023-04-24T08:30:13;11.63;;;7.97;;
77226;SDS011;66234;47.642;19.144;2023-04-24T08:33:15;11.00;;;8.13;;
77226;SDS011;66234;47.642;19.144;2023-04-24T08:36:18;10.95;;;7.85;;
77226;SDS011;66234;47.642;19.144;2023-04-24T08:39:21;11.75;;;7.88;;
77226;SDS011;66234;47.642;19.144;2023-04-24T08:42:24;12.90;;;8.27;;
77226;SDS011;66234;47.642;19.144;2023-04-24T08:45:30;14.37;;;7.50;;
77226;SDS011;66234;47.642;19.144;2023-04-24T08:48:35;11.10;;;7.67;;
77226;SDS011;66234;47.642;19.144;2023-04-24T08:51:38;11.43;;;7.32;;
77226;SDS011;66234;47.642;19.144;2023-04-24T08:54:42;11.35;;;6.70;;
77226;SDS011;66234;47.642;19.144;2023-04-24T08:57:51;10.60;;;7.82;;
77226;SDS011;66234;47.642;19.144;2023-04-24T09:00:56;12.27;;;8.03;;
77226;SDS011;66234;47.642;19.144;2023-04-24T09:04:02;12.70;;;7.93;;
77226;SDS011;66234;47.642;19.144;2023-04-24T09:07:10;10.90;;;7.63;;
77226;SDS011;66234;47.642;19.144;2023-04-24T09:10:16;12.35;;;7.13;;
77226;SDS011;66234;47.642;19.144;2023-04-24T09:13:19;10.63;;;8.05;;
77226;SDS011;66234;47.642;19.144;2023-04-24T09:16:22;13.87;;;8.03;;
77226;SDS011;66234;47.642;19.144;2023-04-24T09:19:27;10.73;;;8.13;;
77226;SDS011;66234;47.642;19.144;2023-04-24T09:22:30;11.40;;;7.97;;
77226;SDS011;66234;47.642;19.144;2023-04-24T09:25:35;12.07;;;7.97;;
77226;SDS011;66234;47.642;19.144;2023-04-24T09:28:39;12.85;;;7.60;;
77226;SDS011;66234;47.642;19.144;2023-04-24T09:31:44;13.33;;;7.73;;
77226;SDS011;66234;47.642;19.144;2023-04-24T09:34:48;10.63;;;7.57;;
77226;SDS011;66234;47.642;19.144;2023-04-24T09:37:51;10.45;;;7.28;;
77226;SDS011;66234;47.642;19.144;2023-04-24T09:40:54;10.30;;;7.00;;
77226;SDS011;66234;47.642;19.144;2023-04-24T09:43:56;10.05;;;6.97;;
77226;SDS011;66234;47.642;19.144;2023-04-24T09:47:03;10.13;;;7.27;;
77226;SDS011;66234;47.642;19.144;2023-04-24T09:50:16;9.73;;;6.93;;
77226;SDS011;66234;47.642;19.144;2023-04-24T09:53:24;8.50;;;6.68;;
77226;SDS011;66234;47.642;19.144;2023-04-24T09:56:29;8.30;;;5.57;;
77226;SDS011;66234;47.642;19.144;2023-04-24T09:59:35;8.88;;;5.55;;
77226;SDS011;66234;47.642;19.144;2023-04-24T10:02:45;7.07;;;5.53;;
77226;SDS011;66234;47.642;19.144;2023-04-24T10:05:52;7.83;;;4.83;;
77226;SDS011;66234;47.642;19.144;2023-04-24T10:08:56;5.13;;;3.47;;
77226;SDS011;66234;47.642;19.144;2023-04-24T10:12:00;5.10;;;3.83;;
77226;SDS011;66234;47.642;19.144;2023-04-24T10:15:04;4.93;;;3.95;;
77226;SDS011;66234;47.642;19.144;2023-04-24T10:18:08;6.70;;;4.70;;
77226;SDS011;66234;47.642;19.144;2023-04-24T10:21:14;10.37;;;5.13;;
77226;SDS011;66234;47.642;19.144;2023-04-24T10:24:17;7.07;;;5.13;;
77226;SDS011;66234;47.642;19.144;2023-04-24T10:27:25;8.75;;;5.07;;
77226;SDS011;66234;47.642;19.144;2023-04-24T10:30:30;8.18;;;5.05;;
77226;SDS011;66234;47.642;19.144;2023-04-24T10:33:38;9.93;;;5.17;;
77226;SDS011;66234;47.642;19.144;2023-04-24T10:36:48;7.23;;;4.80;;
77226;SDS011;66234;47.642;19.144;2023-04-24T10:40:18;6.43;;;4.90;;
77226;SDS011;66234;47.642;19.144;2023-04-24T10:43:27;8.57;;;4.93;;
77226;SDS011;66234;47.642;19.144;2023-04-24T10:46:30;5.95;;;4.78;;
77226;SDS011;66234;47.642;19.144;2023-04-24T10:49:33;8.03;;;4.97;;
77226;SDS011;66234;47.642;19.144;2023-04-24T10:52:46;8.23;;;5.60;;
77226;SDS011;66234;47.642;19.144;2023-04-24T10:59:00;10.18;;;5.97;;
77226;SDS011;66234;47.642;19.144;2023-04-24T11:02:03;7.80;;;5.40;;
77226;SDS011;66234;47.642;19.144;2023-04-24T11:05:10;9.23;;;5.30;;
77226;SDS011;66234;47.642;19.144;2023-04-24T11:08:14;7.20;;;5.63;;
77226;SDS011;66234;47.642;19.144;2023-04-24T11:11:25;8.77;;;5.55;;
77226;SDS011;66234;47.642;19.144;2023-04-24T11:18:03;8.00;;;5.47;;
77226;SDS011;66234;47.642;19.144;2023-04-24T11:21:11;8.00;;;5.10;;
77226;SDS011;66234;47.642;19.144;2023-04-24T11:27:40;8.55;;;6.57;;
77226;SDS011;66234;47.642;19.144;2023-04-24T11:30:45;8.30;;;6.13;;
77226;SDS011;66234;47.642;19.144;2023-04-24T11:33:48;11.75;;;6.07;;
77226;SDS011;66234;47.642;19.144;2023-04-24T11:36:51;10.20;;;6.07;;
77226;SDS011;66234;47.642;19.144;2023-04-24T11:39:55;9.87;;;6.63;;
77226;SDS011;66234;47.642;19.144;2023-04-24T11:43:01;10.50;;;6.72;;
77226;SDS011;66234;47.642;19.144;2023-04-24T11:46:09;12.05;;;7.97;;
77226;SDS011;66234;47.642;19.144;2023-04-24T11:49:12;9.35;;;7.05;;
77226;SDS011;66234;47.642;19.144;2023-04-24T11:52:15;13.37;;;6.60;;
77226;SDS011;66234;47.642;19.144;2023-04-24T11:58:23;13.15;;;7.50;;
77226;SDS011;66234;47.642;19.144;2023-04-24T12:01:25;8.52;;;6.43;;
77226;SDS011;66234;47.642;19.144;2023-04-24T12:04:37;9.88;;;6.18;;
77226;SDS011;66234;47.642;19.144;2023-04-24T12:07:42;13.30;;;6.77;;
77226;SDS011;66234;47.642;19.144;2023-04-24T12:10:47;10.90;;;6.57;;
77226;SDS011;66234;47.642;19.144;2023-04-24T12:13:54;9.32;;;6.75;;
77226;SDS011;66234;47.642;19.144;2023-04-24T12:16:57;9.88;;;6.38;;
77226;SDS011;66234;47.642;19.144;2023-04-24T12:20:04;10.82;;;6.45;;
77226;SDS011;66234;47.642;19.144;2023-04-24T12:23:08;11.67;;;6.83;;
77226;SDS011;66234;47.642;19.144;2023-04-24T12:26:12;11.50;;;7.27;;
77226;SDS011;66234;47.642;19.144;2023-04-24T12:29:20;9.85;;;6.68;;
77226;SDS011;66234;47.642;19.144;2023-04-24T12:32:23;10.13;;;6.95;;
77226;SDS011;66234;47.642;19.144;2023-04-24T12:35:30;10.57;;;7.50;;
77226;SDS011;66234;47.642;19.144;2023-04-24T12:38:36;12.73;;;8.00;;
77226;SDS011;66234;47.642;19.144;2023-04-24T12:41:55;9.73;;;7.20;;
77226;SDS011;66234;47.642;19.144;2023-04-24T12:45:04;13.38;;;7.40;;
77226;SDS011;66234;47.642;19.144;2023-04-24T12:48:08;14.90;;;7.75;;
77226;SDS011;66234;47.642;19.144;2023-04-24T12:51:11;14.90;;;7.88;;
77226;SDS011;66234;47.642;19.144;2023-04-24T12:54:14;12.13;;;7.17;;
77226;SDS011;66234;47.642;19.144;2023-04-24T12:57:17;12.33;;;8.60;;
77226;SDS011;66234;47.642;19.144;2023-04-24T13:00:20;12.50;;;8.18;;
77226;SDS011;66234;47.642;19.144;2023-04-24T13:03:23;15.05;;;8.20;;
77226;SDS011;66234;47.642;19.144;2023-04-24T13:06:27;21.25;;;10.90;;
77226;SDS011;66234;47.642;19.144;2023-04-24T13:09:29;13.97;;;9.23;;
77226;SDS011;66234;47.642;19.144;2023-04-24T13:12:32;14.07;;;9.80;;
77226;SDS011;66234;47.642;19.144;2023-04-24T13:15:35;17.83;;;10.73;;
77226;SDS011;66234;47.642;19.144;2023-04-24T13:18:38;28.33;;;11.20;;
77226;SDS011;66234;47.642;19.144;2023-04-24T13:21:40;14.95;;;9.65;;
77226;SDS011;66234;47.642;19.144;2023-04-24T13:24:43;14.13;;;9.50;;
77226;SDS011;66234;47.642;19.144;2023-04-24T13:27:46;19.27;;;10.73;;
77226;SDS011;66234;47.642;19.144;2023-04-24T13:30:49;19.15;;;11.60;;
77226;SDS011;66234;47.642;19.144;2023-04-24T13:33:53;13.60;;;7.20;;
77226;SDS011;66234;47.642;19.144;2023-04-24T13:36:56;9.50;;;6.82;;
77226;SDS011;66234;47.642;19.144;2023-04-24T13:40:01;11.87;;;7.13;;
77226;SDS011;66234;47.642;19.144;2023-04-24T13:43:09;9.43;;;6.70;;
77226;SDS011;66234;47.642;19.144;2023-04-24T13:46:12;12.80;;;7.00;;
77226;SDS011;66234;47.642;19.144;2023-04-24T13:49:15;12.57;;;7.43;;
77226;SDS011;66234;47.642;19.144;2023-04-24T13:52:18;12.30;;;7.25;;
77226;SDS011;66234;47.642;19.144;2023-04-24T13:55:21;7.37;;;6.00;;
77226;SDS011;66234;47.642;19.144;2023-04-24T13:58:24;10.63;;;5.50;;
77226;SDS011;66234;47.642;19.144;2023-04-24T14:01:27;9.93;;;5.72;;
77226;SDS011;66234;47.642;19.144;2023-04-24T14:04:30;11.27;;;6.38;;
77226;SDS011;66234;47.642;19.144;2023-04-24T14:07:34;10.70;;;6.30;;
77226;SDS011;66234;47.642;19.144;2023-04-24T14:10:37;8.00;;;4.87;;
77226;SDS011;66234;47.642;19.144;2023-04-24T14:13:40;8.93;;;4.90;;
77226;SDS011;66234;47.642;19.144;2023-04-24T14:16:44;8.93;;;5.40;;
77226;SDS011;66234;47.642;19.144;2023-04-24T14:19:48;8.48;;;5.40;;
77226;SDS011;66234;47.642;19.144;2023-04-24T14:22:51;8.63;;;5.18;;
77226;SDS011;66234;47.642;19.144;2023-04-24T14:25:53;7.97;;;5.47;;
77226;SDS011;66234;47.642;19.144;2023-04-24T14:28:56;11.40;;;5.30;;
77226;SDS011;66234;47.642;19.144;2023-04-24T14:32:15;7.68;;;5.53;;
77226;SDS011;66234;47.642;19.144;2023-04-24T14:35:18;8.45;;;5.50;;
77226;SDS011;66234;47.642;19.144;2023-04-24T14:38:21;7.78;;;5.72;;
77226;SDS011;66234;47.642;19.144;2023-04-24T14:41:24;8.27;;;6.20;;
77226;SDS011;66234;47.642;19.144;2023-04-24T14:44:27;6.90;;;6.20;;
77226;SDS011;66234;47.642;19.144;2023-04-24T14:47:29;8.30;;;6.20;;
77226;SDS011;66234;47.642;19.144;2023-04-24T14:50:35;9.25;;;6.22;;
77226;SDS011;66234;47.642;19.144;2023-04-24T14:53:38;13.55;;;9.60;;
77226;SDS011;66234;47.642;19.144;2023-04-24T14:56:41;12.10;;;8.80;;
77226;SDS011;66234;47.642;19.144;2023-04-24T14:59:46;16.77;;;10.63;;
77226;SDS011;66234;47.642;19.144;2023-04-24T15:02:49;13.02;;;8.75;;
77226;SDS011;66234;47.642;19.144;2023-04-24T15:05:52;10.93;;;7.25;;
77226;SDS011;66234;47.642;19.144;2023-04-24T15:08:54;11.27;;;6.70;;
77226;SDS011;66234;47.642;19.144;2023-04-24T15:11:58;12.83;;;7.10;;
77226;SDS011;66234;47.642;19.144;2023-04-24T15:15:01;12.50;;;7.77;;
77226;SDS011;66234;47.642;19.144;2023-04-24T15:18:04;10.40;;;8.05;;
77226;SDS011;66234;47.642;19.144;2023-04-24T15:21:07;17.08;;;9.18;;
77226;SDS011;66234;47.642;19.144;2023-04-24T15:24:10;13.00;;;9.48;;
77226;SDS011;66234;47.642;19.144;2023-04-24T15:27:13;14.10;;;9.47;;
77226;SDS011;66234;47.642;19.144;2023-04-24T15:30:15;11.07;;;8.20;;
77226;SDS011;66234;47.642;19.144;2023-04-24T15:33:18;16.50;;;9.88;;
77226;SDS011;66234;47.642;19.144;2023-04-24T15:36:21;11.43;;;8.40;;
77226;SDS011;66234;47.642;19.144;2023-04-24T15:39:24;12.05;;;8.52;;
77226;SDS011;66234;47.642;19.144;2023-04-24T15:42:27;14.10;;;9.13;;
77226;SDS011;66234;47.642;19.144;2023-04-24T15:45:29;15.37;;;9.63;;
77226;SDS011;66234;47.642;19.144;2023-04-24T15:48:32;14.27;;;9.60;;
77226;SDS011;66234;47.642;19.144;2023-04-24T15:51:35;13.07;;;8.23;;
77226;SDS011;66234;47.642;19.144;2023-04-24T15:54:37;12.50;;;9.48;;
77226;SDS011;66234;47.642;19.144;2023-04-24T15:57:42;11.23;;;7.67;;
77226;SDS011;66234;47.642;19.144;2023-04-24T16:00:45;12.43;;;8.83;;
77226;SDS011;66234;47.642;19.144;2023-04-24T16:03:48;15.98;;;10.98;;
77226;SDS011;66234;47.642;19.144;2023-04-24T16:06:51;11.48;;;7.10;;
77226;SDS011;66234;47.642;19.144;2023-04-24T16:09:54;9.70;;;6.53;;
77226;SDS011;66234;47.642;19.144;2023-04-24T16:12:57;9.93;;;7.13;;
77226;SDS011;66234;47.642;19.144;2023-04-24T16:16:02;6.63;;;5.77;;
77226;SDS011;66234;47.642;19.144;2023-04-24T16:19:05;10.48;;;6.45;;
77226;SDS011;66234;47.642;19.144;2023-04-24T16:22:09;10.93;;;6.82;;
77226;SDS011;66234;47.642;19.144;2023-04-24T16:25:12;9.93;;;6.70;;
77226;SDS011;66234;47.642;19.144;2023-04-24T16:28:15;8.30;;;7.00;;
77226;SDS011;66234;47.642;19.144;2023-04-24T16:31:18;11.00;;;7.43;;
77226;SDS011;66234;47.642;19.144;2023-04-24T16:34:20;12.02;;;9.13;;
77226;SDS011;66234;47.642;19.144;2023-04-24T16:37:23;10.63;;;7.30;;
77226;SDS011;66234;47.642;19.144;2023-04-24T16:40:30;9.48;;;7.20;;
77226;SDS011;66234;47.642;19.144;2023-04-24T16:43:32;9.47;;;6.90;;
77226;SDS011;66234;47.642;19.144;2023-04-24T16:46:35;9.07;;;7.00;;
77226;SDS011;66234;47.642;19.144;2023-04-24T16:49:38;8.05;;;6.10;;
77226;SDS011;66234;47.642;19.144;2023-04-24T16:52:40;11.20;;;6.45;;
77226;SDS011;66234;47.642;19.144;2023-04-24T16:55:44;8.73;;;5.22;;
77226;SDS011;66234;47.642;19.144;2023-04-24T16:58:47;9.77;;;5.00;;
77226;SDS011;66234;47.642;19.144;2023-04-24T17:01:51;6.57;;;4.93;;
77226;SDS011;66234;47.642;19.144;2023-04-24T17:04:54;7.70;;;5.63;;
77226;SDS011;66234;47.642;19.144;2023-04-24T17:07:57;6.22;;;4.45;;
77226;SDS011;66234;47.642;19.144;2023-04-24T17:11:00;5.70;;;4.07;;
77226;SDS011;66234;47.642;19.144;2023-04-24T17:14:03;5.80;;;4.57;;
77226;SDS011;66234;47.642;19.144;2023-04-24T17:17:08;7.60;;;4.47;;
77226;SDS011;66234;47.642;19.144;2023-04-24T17:20:12;6.10;;;4.50;;
77226;SDS011;66234;47.642;19.144;2023-04-24T17:23:24;4.82;;;3.45;;
77226;SDS011;66234;47.642;19.144;2023-04-24T17:26:27;4.88;;;3.75;;
77226;SDS011;66234;47.642;19.144;2023-04-24T17:29:31;4.27;;;3.20;;
77226;SDS011;66234;47.642;19.144;2023-04-24T17:32:34;4.60;;;3.70;;
77226;SDS011;66234;47.642;19.144;2023-04-24T17:35:37;4.47;;;3.20;;
77226;SDS011;66234;47.642;19.144;2023-04-24T17:38:39;4.88;;;3.10;;
77226;SDS011;66234;47.642;19.144;2023-04-24T17:41:42;4.20;;;3.35;;
77226;SDS011;66234;47.642;19.144;2023-04-24T17:44:45;3.37;;;2.50;;
77226;SDS011;66234;47.642;19.144;2023-04-24T17:47:48;3.63;;;2.80;;
77226;SDS011;66234;47.642;19.144;2023-04-24T17:50:53;4.32;;;3.40;;
77226;SDS011;66234;47.642;19.144;2023-04-24T17:53:56;4.88;;;3.10;;
77226;SDS011;66234;47.642;19.144;2023-04-24T17:56:59;7.22;;;2.58;;
77226;SDS011;66234;47.642;19.144;2023-04-24T18:00:02;4.23;;;3.47;;
77226;SDS011;66234;47.642;19.144;2023-04-24T18:03:07;6.07;;;3.40;;
77226;SDS011;66234;47.642;19.144;2023-04-24T18:06:10;5.47;;;3.83;;
77226;SDS011;66234;47.642;19.144;2023-04-24T18:09:18;7.78;;;4.20;;
77226;SDS011;66234;47.642;19.144;2023-04-24T18:12:22;5.13;;;3.80;;
77226;SDS011;66234;47.642;19.144;2023-04-24T18:15:25;4.63;;;3.30;;